createdAt,value
2017-09-09T00:00:30.197Z,91.00
2017-09-09T00:02:31.913Z,91.00
2017-09-09T00:04:32.869Z,91.00
2017-09-09T00:06:33.849Z,91.00
2017-09-09T00:08:34.801Z,90.90
2017-09-09T00:10:35.748Z,90.90
2017-09-09T00:12:36.708Z,90.80
2017-09-09T00:14:37.652Z,90.80
2017-09-09T00:16:38.614Z,90.90
2017-09-09T00:18:40.322Z,90.80
2017-09-09T00:20:41.281Z,90.80
2017-09-09T00:22:42.990Z,90.60
2017-09-09T00:24:43.932Z,90.90
2017-09-09T00:26:44.895Z,90.80
2017-09-09T00:28:45.874Z,90.70
2017-09-09T00:30:46.821Z,90.80
2017-09-09T00:32:47.784Z,90.60
2017-09-09T00:34:48.752Z,90.70
2017-09-09T00:36:49.696Z,90.80
2017-09-09T00:38:51.401Z,90.80
2017-09-09T00:40:59.451Z,91.10
2017-09-09T00:43:01.169Z,91.00
2017-09-09T00:45:02.120Z,90.60
2017-09-09T00:47:03.068Z,90.60
2017-09-09T00:49:04.028Z,90.60
2017-09-09T00:51:05.017Z,90.60
2017-09-09T00:53:06.011Z,90.50
2017-09-09T00:55:07.010Z,90.50
2017-09-09T00:57:08.787Z,90.50
2017-09-09T00:59:10.505Z,90.20
2017-09-09T01:01:11.461Z,90.20
2017-09-09T01:03:13.152Z,90.60
2017-09-09T01:05:14.117Z,90.60
2017-09-09T01:07:15.077Z,90.40
2017-09-09T01:09:16.033Z,90.30
2017-09-09T01:11:17.721Z,90.40
2017-09-09T01:13:18.676Z,90.40
2017-09-09T01:15:19.672Z,90.40
2017-09-09T01:17:20.646Z,90.20
2017-09-09T01:19:21.608Z,90.00
2017-09-09T01:21:22.567Z,89.20
2017-09-09T01:23:24.265Z,90.00
2017-09-09T01:25:25.274Z,89.90
2017-09-09T01:27:26.283Z,90.10
2017-09-09T01:29:35.114Z,89.90
2017-09-09T01:31:36.817Z,90.00
2017-09-09T01:33:37.776Z,90.10
2017-09-09T01:35:38.728Z,90.10
2017-09-09T01:37:40.421Z,90.10
2017-09-09T01:39:41.377Z,90.10
2017-09-09T01:41:42.328Z,90.60
2017-09-09T01:43:43.277Z,90.50
2017-09-09T01:45:44.226Z,90.60
2017-09-09T01:47:45.904Z,90.70
2017-09-09T01:49:46.850Z,90.70
2017-09-09T01:51:47.813Z,90.70
2017-09-09T01:53:48.764Z,90.70
2017-09-09T01:55:49.731Z,90.60
2017-09-09T01:57:51.422Z,90.40
2017-09-09T01:59:52.373Z,90.40
2017-09-09T02:01:53.337Z,90.70
2017-09-09T02:03:55.042Z,90.70
2017-09-09T02:05:55.998Z,90.70
2017-09-09T02:07:56.961Z,90.40
2017-09-09T02:09:58.665Z,90.50
2017-09-09T02:11:59.625Z,90.50
2017-09-09T02:14:00.576Z,90.50
2017-09-09T02:16:01.529Z,90.40
2017-09-09T02:18:03.221Z,90.30
2017-09-09T02:20:04.188Z,90.30
2017-09-09T02:22:05.149Z,90.20
2017-09-09T02:24:06.853Z,90.10
2017-09-09T02:26:07.812Z,90.10
2017-09-09T02:28:08.768Z,90.40
2017-09-09T02:30:09.723Z,90.30
2017-09-09T02:32:11.427Z,90.40
2017-09-09T02:34:12.402Z,90.40
2017-09-09T02:36:14.088Z,90.40
2017-09-09T02:38:15.061Z,90.40
2017-09-09T02:40:16.021Z,90.30
2017-09-09T02:42:17.708Z,90.20
2017-09-09T02:44:18.669Z,90.20
2017-09-09T02:46:19.612Z,90.00
2017-09-09T02:48:20.576Z,90.20
2017-09-09T02:52:30.070Z,90.00
2017-09-09T02:54:31.037Z,89.90
2017-09-09T02:56:31.989Z,89.30
2017-09-09T02:58:32.945Z,88.50
2017-09-09T03:00:34.638Z,89.40
2017-09-09T03:02:35.592Z,89.40
2017-09-09T03:04:36.557Z,89.50
2017-09-09T03:06:38.253Z,90.00
2017-09-09T03:08:39.204Z,89.30
2017-09-09T03:10:40.174Z,88.90
2017-09-09T03:12:41.124Z,88.50
2017-09-09T03:14:42.828Z,89.10
2017-09-09T03:16:43.789Z,89.10
2017-09-09T03:18:44.738Z,89.40
2017-09-09T03:20:45.707Z,89.10
2017-09-09T03:22:46.673Z,90.00
2017-09-09T03:24:47.633Z,89.30
2017-09-09T03:26:48.596Z,89.80
2017-09-09T03:28:49.537Z,90.20
2017-09-09T03:30:51.248Z,90.00
2017-09-09T03:32:52.196Z,89.80
2017-09-09T03:34:53.174Z,89.90
2017-09-09T03:36:54.177Z,90.00
2017-09-09T03:38:55.136Z,90.10
2017-09-09T03:40:56.840Z,90.10
2017-09-09T03:42:57.803Z,90.10
2017-09-09T03:44:59.525Z,90.00
2017-09-09T03:47:00.486Z,90.00
2017-09-09T03:49:01.449Z,89.70
2017-09-09T03:51:02.418Z,89.90
2017-09-09T03:53:03.368Z,90.10
2017-09-09T03:55:04.316Z,90.20
2017-09-09T03:57:05.277Z,90.10
2017-09-09T03:59:06.214Z,90.00
2017-09-09T04:01:07.913Z,90.50
2017-09-09T04:03:08.862Z,90.50
2017-09-09T04:05:09.815Z,90.40
2017-09-09T04:07:10.776Z,90.20
2017-09-09T04:09:12.477Z,90.40
2017-09-09T04:11:13.440Z,90.40
2017-09-09T04:13:14.388Z,90.40
2017-09-09T04:15:15.333Z,90.60
2017-09-09T04:17:17.034Z,90.60
2017-09-09T04:19:17.994Z,90.60
2017-09-09T04:21:18.944Z,90.60
2017-09-09T04:23:19.903Z,90.60
2017-09-09T04:25:21.589Z,90.60
2017-09-09T04:27:22.569Z,90.60
2017-09-09T04:29:23.509Z,90.60
2017-09-09T04:31:24.448Z,90.60
2017-09-09T04:33:26.144Z,90.70
2017-09-09T04:35:27.094Z,90.50
2017-09-09T04:37:28.049Z,90.30
2017-09-09T04:39:29.002Z,90.50
2017-09-09T04:41:29.952Z,90.60
2017-09-09T04:43:31.644Z,90.40
2017-09-09T04:45:32.584Z,90.40
2017-09-09T04:47:33.558Z,90.10
2017-09-09T04:49:34.525Z,90.40
2017-09-09T04:51:36.214Z,90.20
2017-09-09T04:53:37.172Z,90.20
2017-09-09T04:55:38.130Z,90.30
2017-09-09T04:57:39.829Z,89.80
2017-09-09T04:59:40.801Z,89.80
2017-09-09T05:01:41.761Z,88.70
2017-09-09T05:03:43.456Z,88.10
2017-09-09T05:05:44.413Z,88.10
2017-09-09T05:07:45.365Z,88.20
2017-09-09T05:09:46.325Z,87.70
2017-09-09T05:11:48.013Z,88.20
2017-09-09T05:13:48.974Z,88.10
2017-09-09T05:15:49.931Z,88.80
2017-09-09T05:17:50.879Z,88.50
2017-09-09T05:19:52.584Z,89.30
2017-09-09T05:21:53.533Z,89.30
2017-09-09T05:23:54.532Z,89.60
2017-09-09T05:25:55.489Z,90.10
2017-09-09T05:27:56.441Z,90.10
2017-09-09T05:29:57.400Z,90.10
2017-09-09T05:31:59.088Z,90.10
2017-09-09T05:34:00.029Z,90.10
2017-09-09T05:36:00.989Z,90.20
2017-09-09T05:38:01.957Z,90.20
2017-09-09T05:40:03.657Z,90.20
2017-09-09T05:42:04.614Z,90.20
2017-09-09T05:44:05.552Z,90.30
2017-09-09T05:46:06.541Z,90.30
2017-09-09T05:48:08.225Z,90.50
2017-09-09T05:50:09.207Z,90.50
2017-09-09T05:52:10.156Z,90.50
2017-09-09T05:54:11.844Z,90.50
2017-09-09T05:56:12.815Z,90.50
2017-09-09T05:58:13.769Z,90.80
2017-09-09T06:00:15.496Z,90.80
2017-09-09T06:02:16.449Z,90.50
2017-09-09T06:04:17.412Z,90.50
2017-09-09T06:06:19.112Z,90.50
2017-09-09T06:08:20.841Z,90.60
2017-09-09T06:10:21.789Z,90.50
2017-09-09T06:12:22.764Z,90.60
2017-09-09T06:14:23.713Z,90.50
2017-09-09T06:16:25.412Z,90.60
2017-09-09T06:18:26.360Z,90.60
2017-09-09T06:20:27.308Z,90.60
2017-09-09T06:22:28.269Z,90.60
2017-09-09T06:24:29.960Z,90.60
2017-09-09T06:26:30.942Z,90.60
2017-09-09T06:28:31.884Z,90.60
2017-09-09T06:30:32.832Z,90.60
2017-09-09T06:32:34.529Z,90.80
2017-09-09T06:34:35.480Z,90.80
2017-09-09T06:36:36.454Z,90.60
2017-09-09T06:38:38.160Z,90.80
2017-09-09T06:40:39.112Z,90.80
2017-09-09T06:42:40.076Z,90.80
2017-09-09T06:44:41.778Z,90.60
2017-09-09T06:46:42.742Z,90.70
2017-09-09T06:48:43.702Z,90.60
2017-09-09T06:50:44.642Z,90.60
2017-09-09T06:52:46.335Z,90.70
2017-09-09T06:54:47.287Z,90.70
2017-09-09T06:56:48.329Z,89.80
2017-09-09T06:58:49.305Z,88.10
2017-09-09T07:00:50.986Z,89.20
2017-09-09T07:02:51.937Z,89.10
2017-09-09T07:04:52.918Z,89.10
2017-09-09T07:06:53.860Z,88.50
2017-09-09T07:08:55.557Z,89.20
2017-09-09T07:10:56.510Z,89.20
2017-09-09T07:13:04.390Z,87.90
2017-09-09T07:15:05.352Z,89.00
2017-09-09T07:17:06.316Z,88.70
2017-09-09T07:19:07.272Z,88.30
2017-09-09T07:21:08.213Z,88.40
2017-09-09T07:23:09.153Z,88.20
2017-09-09T07:25:10.109Z,88.80
2017-09-09T07:27:11.068Z,89.60
2017-09-09T07:29:12.030Z,89.40
2017-09-09T07:31:13.723Z,88.30
2017-09-09T07:33:14.689Z,88.30
2017-09-09T07:35:15.654Z,88.80
2017-09-09T07:37:17.345Z,87.10
2017-09-09T07:39:18.313Z,87.20
2017-09-09T07:41:19.268Z,87.30
2017-09-09T07:43:20.215Z,86.10
2017-09-09T07:45:21.912Z,85.50
2017-09-09T07:47:22.861Z,85.30
2017-09-09T07:49:23.804Z,84.80
2017-09-09T07:51:24.762Z,82.80
2017-09-09T07:53:25.705Z,84.00
2017-09-09T07:55:26.664Z,85.70
2017-09-09T07:57:27.609Z,84.30
2017-09-09T07:59:28.548Z,84.10
2017-09-09T08:01:29.500Z,85.10
2017-09-09T08:03:30.452Z,85.90
2017-09-09T08:05:31.408Z,86.20
2017-09-09T08:07:32.353Z,85.50
2017-09-09T08:09:33.292Z,86.90
2017-09-09T08:11:34.989Z,86.10
2017-09-09T08:13:35.930Z,85.90
2017-09-09T08:15:37.017Z,87.30
2017-09-09T08:17:38.713Z,88.50
2017-09-09T08:19:39.660Z,87.90
2017-09-09T08:21:40.631Z,87.70
2017-09-09T08:23:41.576Z,87.30
2017-09-09T08:25:43.267Z,89.90
2017-09-09T08:27:44.225Z,89.00
2017-09-09T08:29:45.177Z,88.30
2017-09-09T08:31:46.178Z,88.80
2017-09-09T08:33:47.133Z,87.70
2017-09-09T08:35:48.085Z,90.20
2017-09-09T08:37:49.041Z,90.40
2017-09-09T08:39:49.990Z,90.50
2017-09-09T08:41:51.686Z,91.20
2017-09-09T08:43:52.646Z,91.20
2017-09-09T08:45:53.619Z,91.20
2017-09-09T08:47:55.309Z,89.90
2017-09-09T08:49:56.265Z,89.70
2017-09-09T08:51:57.245Z,88.90
2017-09-09T08:54:05.110Z,88.90
2017-09-09T08:56:06.068Z,88.90
2017-09-09T08:58:07.770Z,88.00
2017-09-09T09:00:08.732Z,88.10
2017-09-09T09:02:09.710Z,87.90
2017-09-09T09:04:10.648Z,87.20
2017-09-09T09:06:11.590Z,86.80
2017-09-09T09:08:12.541Z,88.60
2017-09-09T09:10:13.496Z,87.30
2017-09-09T09:12:15.189Z,88.30
2017-09-09T09:14:16.885Z,87.10
2017-09-09T09:16:17.850Z,87.30
2017-09-09T09:18:18.853Z,87.20
2017-09-09T09:20:26.880Z,87.40
2017-09-09T09:22:27.844Z,88.10
2017-09-09T09:24:29.547Z,87.00
2017-09-09T09:26:30.514Z,87.10
2017-09-09T09:28:31.464Z,85.90
2017-09-09T09:30:33.152Z,86.00
2017-09-09T09:32:34.101Z,85.30
2017-09-09T09:34:35.046Z,85.90
2017-09-09T09:36:36.001Z,87.40
2017-09-09T09:38:37.037Z,87.20
2017-09-09T09:40:37.993Z,86.70
2017-09-09T09:42:38.946Z,84.10
2017-09-09T09:44:40.646Z,83.90
2017-09-09T09:46:41.597Z,83.70
2017-09-09T09:48:42.569Z,87.20
2017-09-09T09:50:44.257Z,86.90
2017-09-09T09:52:45.222Z,86.90
2017-09-09T09:54:46.177Z,84.80
2017-09-09T09:56:47.130Z,86.70
2017-09-09T09:58:48.833Z,85.70
2017-09-09T10:00:49.787Z,85.70
2017-09-09T10:02:50.789Z,84.00
2017-09-09T10:04:51.740Z,83.10
2017-09-09T10:06:52.688Z,84.00
2017-09-09T10:08:53.628Z,85.20
2017-09-09T10:10:54.586Z,81.10
2017-09-09T10:12:55.558Z,80.80
2017-09-09T10:14:57.233Z,78.30
2017-09-09T10:16:58.182Z,78.40
2017-09-09T10:18:59.138Z,78.20
2017-09-09T10:21:00.101Z,77.30
2017-09-09T10:23:01.803Z,76.40
2017-09-09T10:25:04.727Z,76.80
2017-09-09T10:27:06.433Z,78.10
2017-09-09T10:29:07.388Z,78.30
2017-09-09T10:31:08.356Z,76.00
2017-09-09T10:33:09.305Z,78.20
2017-09-09T10:35:10.262Z,70.50
2017-09-09T10:37:11.226Z,72.20
2017-09-09T10:39:12.192Z,68.20
2017-09-09T10:41:13.897Z,67.80
2017-09-09T10:43:14.856Z,67.80
2017-09-09T10:45:15.919Z,67.50
2017-09-09T10:47:16.971Z,68.20
2017-09-09T10:49:18.877Z,69.80
2017-09-09T10:51:19.840Z,67.20
2017-09-09T10:53:20.777Z,67.00
2017-09-09T10:55:21.713Z,65.80
2017-09-09T10:57:23.404Z,64.50
2017-09-09T10:59:24.340Z,63.60
2017-09-09T11:01:25.310Z,64.10
2017-09-09T11:03:26.261Z,63.60
2017-09-09T11:05:27.209Z,64.10
2017-09-09T11:07:28.920Z,64.00
2017-09-09T11:09:29.860Z,64.60
2017-09-09T11:11:30.806Z,66.90
2017-09-09T11:13:31.761Z,67.40
2017-09-09T11:15:33.461Z,67.60
2017-09-09T11:17:34.417Z,66.50
2017-09-09T11:19:35.360Z,66.30
2017-09-09T11:21:36.300Z,69.20
2017-09-09T11:23:37.253Z,69.80
2017-09-09T11:25:38.204Z,69.30
2017-09-09T11:27:39.888Z,71.40
2017-09-09T11:29:40.880Z,71.40
2017-09-09T11:31:41.832Z,70.60
2017-09-09T11:33:43.541Z,69.40
2017-09-09T11:35:44.497Z,68.80
2017-09-09T11:37:45.465Z,70.40
2017-09-09T11:39:47.175Z,71.70
2017-09-09T11:41:48.112Z,71.80
2017-09-09T11:43:49.069Z,71.90
2017-09-09T11:45:50.748Z,69.30
2017-09-09T11:47:51.714Z,69.30
2017-09-09T11:49:52.681Z,70.50
2017-09-09T11:51:53.629Z,69.90
2017-09-09T11:53:55.325Z,71.00
2017-09-09T11:55:56.266Z,71.10
2017-09-09T11:57:57.213Z,71.30
2017-09-09T11:59:58.170Z,71.30
2017-09-09T12:01:59.119Z,73.00
2017-09-09T12:04:00.073Z,75.30
2017-09-09T12:06:01.766Z,72.20
2017-09-09T12:08:02.716Z,72.50
2017-09-09T12:10:04.409Z,72.90
2017-09-09T12:12:06.097Z,68.40
2017-09-09T12:14:07.064Z,68.40
2017-09-09T12:16:08.004Z,64.00
2017-09-09T12:18:08.949Z,60.40
2017-09-09T12:20:09.999Z,60.70
2017-09-09T12:22:12.070Z,60.70
2017-09-09T12:24:14.181Z,60.90
2017-09-09T12:26:15.173Z,60.90
2017-09-09T12:28:17.681Z,59.00
2017-09-09T12:30:18.747Z,57.20
2017-09-09T12:32:20.028Z,58.00
2017-09-09T12:34:22.035Z,59.80
2017-09-09T12:36:23.004Z,59.00
2017-09-09T12:38:25.215Z,59.00
2017-09-09T12:40:26.672Z,59.00
2017-09-09T12:42:27.627Z,62.00
2017-09-09T12:44:29.130Z,62.60
2017-09-09T12:46:30.085Z,63.10
2017-09-09T12:48:31.455Z,64.40
2017-09-09T12:50:32.777Z,65.50
2017-09-09T12:52:36.336Z,66.10
2017-09-09T12:54:37.362Z,66.20
2017-09-09T12:56:38.374Z,65.80
2017-09-09T12:58:39.326Z,64.40
2017-09-09T13:00:42.764Z,63.20
2017-09-09T13:02:43.726Z,63.20
2017-09-09T13:04:44.705Z,63.50
2017-09-09T13:06:46.414Z,57.30
2017-09-09T13:08:47.364Z,56.80
2017-09-09T13:10:48.336Z,58.90
2017-09-09T13:12:50.108Z,55.20
2017-09-09T13:14:51.087Z,55.00
2017-09-09T13:16:52.040Z,55.30
2017-09-09T13:18:53.361Z,53.60
2017-09-09T13:20:54.316Z,56.00
2017-09-09T13:22:55.282Z,56.70
2017-09-09T13:24:56.968Z,58.50
2017-09-09T13:26:57.934Z,58.20
2017-09-09T13:28:58.889Z,60.70
2017-09-09T13:31:00.585Z,61.30
2017-09-09T13:33:01.554Z,61.40
2017-09-09T13:35:02.508Z,58.90
2017-09-09T13:37:03.536Z,60.00
2017-09-09T13:39:04.492Z,59.20
2017-09-09T13:41:06.201Z,60.20
2017-09-09T13:43:07.173Z,60.40
2017-09-09T13:45:08.909Z,57.40
2017-09-09T13:47:09.860Z,57.30
2017-09-09T13:49:10.822Z,57.80
2017-09-09T13:51:12.513Z,58.40
2017-09-09T13:53:13.468Z,58.60
2017-09-09T13:55:14.411Z,59.20
2017-09-09T13:57:15.358Z,59.50
2017-09-09T13:59:16.314Z,60.90
2017-09-09T14:01:18.010Z,60.70
2017-09-09T14:03:18.969Z,60.70
2017-09-09T14:05:19.924Z,60.70
2017-09-09T14:07:21.615Z,61.00
2017-09-09T14:09:22.594Z,61.00
2017-09-09T14:11:23.546Z,59.70
2017-09-09T14:13:25.236Z,60.90
2017-09-09T14:15:26.206Z,60.00
2017-09-09T14:17:27.176Z,58.90
2017-09-09T14:19:28.885Z,58.30
2017-09-09T14:21:29.849Z,58.30
2017-09-09T14:23:30.793Z,60.20
2017-09-09T14:25:31.757Z,58.50
2017-09-09T14:27:32.718Z,58.10
2017-09-09T14:29:33.685Z,58.90
2017-09-09T14:31:34.638Z,56.70
2017-09-09T14:33:36.350Z,58.30
2017-09-09T14:35:37.319Z,58.00
2017-09-09T14:37:38.265Z,59.80
2017-09-09T14:39:39.221Z,59.60
2017-09-09T14:41:40.185Z,59.90
2017-09-09T14:43:41.142Z,60.30
2017-09-09T14:45:42.114Z,61.20
2017-09-09T14:47:43.802Z,59.10
2017-09-09T14:49:44.753Z,59.10
2017-09-09T14:51:45.871Z,59.70
2017-09-09T14:53:46.825Z,60.30
2017-09-09T14:55:47.802Z,59.40
2017-09-09T14:57:49.499Z,60.80
2017-09-09T14:59:50.480Z,60.50
2017-09-09T15:01:51.432Z,59.00
2017-09-09T15:03:52.434Z,60.40
2017-09-09T15:05:53.380Z,59.40
2017-09-09T15:07:54.328Z,61.90
2017-09-09T15:09:55.272Z,61.40
2017-09-09T15:11:56.964Z,61.80
2017-09-09T15:13:57.932Z,62.30
2017-09-09T15:15:58.906Z,61.90
2017-09-09T15:18:00.597Z,63.80
2017-09-09T15:20:01.557Z,63.80
2017-09-09T15:22:02.513Z,64.10
2017-09-09T15:24:03.465Z,62.50
2017-09-09T15:26:05.165Z,65.50
2017-09-09T15:28:06.120Z,65.50
2017-09-09T15:30:07.086Z,63.40
2017-09-09T15:32:08.769Z,63.10
2017-09-09T15:34:09.724Z,63.10
2017-09-09T15:36:10.680Z,61.00
2017-09-09T15:38:11.649Z,61.30
2017-09-09T15:40:13.337Z,64.00
2017-09-09T15:42:14.305Z,63.90
2017-09-09T15:44:15.262Z,65.50
2017-09-09T15:46:16.212Z,64.20
2017-09-09T15:48:17.917Z,65.50
2017-09-09T15:50:18.864Z,65.50
2017-09-09T15:52:19.814Z,64.90
2017-09-09T15:54:20.774Z,64.60
2017-09-09T15:56:22.453Z,64.70
2017-09-09T15:58:23.435Z,64.60
2017-09-09T16:00:24.373Z,63.80
2017-09-09T16:02:25.334Z,64.90
2017-09-09T16:04:27.049Z,64.90
2017-09-09T16:06:28.017Z,64.80
2017-09-09T16:08:28.981Z,64.90
2017-09-09T16:10:29.925Z,64.80
2017-09-09T16:12:30.881Z,65.30
2017-09-09T16:14:31.841Z,65.30
2017-09-09T16:16:32.810Z,66.10
2017-09-09T16:18:33.770Z,65.30
2017-09-09T16:20:34.725Z,66.70
2017-09-09T16:22:35.673Z,66.20
2017-09-09T16:24:36.637Z,67.10
2017-09-09T16:26:38.373Z,67.10
2017-09-09T16:28:40.106Z,67.00
2017-09-09T16:30:41.062Z,67.00
2017-09-09T16:32:42.008Z,68.20
2017-09-09T16:34:42.969Z,68.80
2017-09-09T16:36:43.926Z,69.40
2017-09-09T16:38:44.900Z,69.60
2017-09-09T16:40:45.884Z,70.80
2017-09-09T16:42:46.861Z,67.80
2017-09-09T16:44:47.812Z,70.90
2017-09-09T16:46:48.769Z,70.90
2017-09-09T16:48:50.483Z,72.90
2017-09-09T16:50:51.437Z,72.90
2017-09-09T16:52:52.385Z,73.10
2017-09-09T16:54:54.085Z,75.20
2017-09-09T16:56:55.096Z,75.10
2017-09-09T16:58:56.789Z,73.70
2017-09-09T17:00:57.740Z,73.70
2017-09-09T17:02:58.697Z,74.60
2017-09-09T17:04:59.658Z,75.90
2017-09-09T17:07:00.605Z,76.00
2017-09-09T17:09:01.560Z,74.00
2017-09-09T17:11:02.517Z,73.60
2017-09-09T17:13:03.458Z,73.80
2017-09-09T17:15:04.410Z,73.30
2017-09-09T17:17:05.382Z,73.70
2017-09-09T17:19:06.328Z,74.40
2017-09-09T17:21:07.288Z,73.30
2017-09-09T17:23:08.240Z,74.30
2017-09-09T17:25:09.202Z,73.80
2017-09-09T17:27:10.934Z,76.40
2017-09-09T17:29:11.893Z,76.40
2017-09-09T17:31:13.614Z,74.80
2017-09-09T17:33:14.557Z,74.70
2017-09-09T17:35:15.642Z,74.50
2017-09-09T17:37:16.613Z,75.20
2017-09-09T17:39:17.577Z,76.70
2017-09-09T17:41:18.545Z,74.70
2017-09-09T17:43:19.510Z,76.90
2017-09-09T17:45:20.482Z,76.40
2017-09-09T17:47:21.436Z,75.30
2017-09-09T17:49:22.388Z,75.10
2017-09-09T17:51:23.342Z,75.40
2017-09-09T17:53:24.285Z,76.60
2017-09-09T17:55:25.241Z,77.50
2017-09-09T17:57:26.189Z,76.80
2017-09-09T17:59:27.161Z,75.40
2017-09-09T18:01:28.130Z,76.10
2017-09-09T18:03:29.086Z,75.70
2017-09-09T18:05:30.046Z,75.60
2017-09-09T18:07:31.006Z,75.80
2017-09-09T18:09:31.997Z,76.30
2017-09-09T18:11:32.949Z,76.90
2017-09-09T18:13:33.907Z,76.60
2017-09-09T18:15:35.597Z,77.00
2017-09-09T18:17:36.568Z,77.00
2017-09-09T18:19:37.550Z,76.70
2017-09-09T18:21:38.561Z,76.40
2017-09-09T18:23:40.327Z,76.20
2017-09-09T18:25:41.297Z,76.20
2017-09-09T18:27:42.300Z,77.80
2017-09-09T18:29:43.266Z,78.40
2017-09-09T18:31:44.257Z,77.00
2017-09-09T18:33:45.957Z,79.20
2017-09-09T18:35:46.916Z,79.20
2017-09-09T18:37:47.882Z,79.30
2017-09-09T18:39:49.579Z,79.20
2017-09-09T18:41:57.512Z,79.20
2017-09-09T18:43:58.469Z,79.10
2017-09-09T18:46:00.156Z,79.20
2017-09-09T18:48:01.155Z,79.10
2017-09-09T18:50:02.885Z,79.30
2017-09-09T18:52:03.845Z,79.20
2017-09-09T18:54:05.565Z,79.40
2017-09-09T18:56:06.539Z,79.40
2017-09-09T18:58:08.242Z,79.30
2017-09-09T19:00:09.199Z,79.20
2017-09-09T19:02:10.169Z,79.70
2017-09-09T19:04:11.874Z,79.60
2017-09-09T19:06:12.854Z,79.50
2017-09-09T19:08:14.588Z,79.60
2017-09-09T19:10:15.533Z,80.30
2017-09-09T19:12:16.549Z,79.80
2017-09-09T19:14:17.517Z,80.40
2017-09-09T19:16:19.218Z,80.60
2017-09-09T19:18:21.123Z,80.60
2017-09-09T19:20:22.088Z,80.60
2017-09-09T19:22:23.044Z,80.70
2017-09-09T19:24:24.013Z,79.80
2017-09-09T19:26:24.987Z,78.80
2017-09-09T19:28:25.938Z,78.30
2017-09-09T19:30:26.896Z,77.90
2017-09-09T19:32:27.841Z,78.00
2017-09-09T19:34:28.805Z,78.30
2017-09-09T19:36:29.768Z,78.30
2017-09-09T19:38:30.732Z,78.70
2017-09-09T19:40:31.726Z,79.30
2017-09-09T19:42:32.690Z,80.20
2017-09-09T19:44:33.657Z,80.50
2017-09-09T19:46:34.663Z,81.70
2017-09-09T19:48:35.634Z,81.50
2017-09-09T19:50:36.588Z,81.40
2017-09-09T19:52:38.406Z,80.70
2017-09-09T19:54:39.366Z,80.50
2017-09-09T19:56:40.318Z,81.20
2017-09-09T19:58:41.261Z,80.90
2017-09-09T20:00:42.957Z,79.50
2017-09-09T20:02:43.922Z,79.50
2017-09-09T20:04:44.906Z,79.90
2017-09-09T20:06:45.867Z,79.30
2017-09-09T20:08:46.815Z,79.30
2017-09-09T20:10:47.813Z,79.20
2017-09-09T20:12:48.756Z,78.60
2017-09-09T20:14:49.729Z,78.80
2017-09-09T20:16:50.720Z,78.40
2017-09-09T20:18:51.729Z,79.00
2017-09-09T20:20:53.458Z,79.20
2017-09-09T20:22:55.446Z,78.10
2017-09-09T20:24:57.225Z,78.90
2017-09-09T20:26:58.213Z,78.90
2017-09-09T20:28:59.173Z,78.00
2017-09-09T20:31:00.140Z,77.20
2017-09-09T20:33:01.105Z,77.90
2017-09-09T20:35:02.102Z,78.70
2017-09-09T20:37:03.064Z,78.10
2017-09-09T20:39:04.031Z,77.50
2017-09-09T20:41:05.013Z,78.10
2017-09-09T20:43:06.010Z,77.90
2017-09-09T20:45:06.973Z,78.70
2017-09-09T20:47:08.690Z,78.30
2017-09-09T20:49:09.660Z,78.30
2017-09-09T20:51:11.385Z,78.50
2017-09-09T20:53:12.358Z,78.50
2017-09-09T20:55:14.092Z,78.80
2017-09-09T20:57:15.809Z,79.40
2017-09-09T20:59:16.831Z,79.40
2017-09-09T21:01:17.774Z,80.20
2017-09-09T21:03:18.760Z,80.00
2017-09-09T21:05:20.467Z,80.00
2017-09-09T21:07:22.168Z,80.40
2017-09-09T21:09:23.866Z,78.80
2017-09-09T21:11:24.826Z,78.80
2017-09-09T21:13:25.790Z,78.40
2017-09-09T21:15:26.744Z,77.90
2017-09-09T21:17:27.692Z,78.40
2017-09-09T21:19:28.644Z,78.80
2017-09-09T21:21:29.610Z,79.10
2017-09-09T21:23:30.614Z,78.30
2017-09-09T21:25:31.570Z,78.60
2017-09-09T21:27:33.305Z,78.70
2017-09-09T21:29:34.273Z,78.70
2017-09-09T21:31:35.208Z,78.40
2017-09-09T21:33:36.185Z,78.40
2017-09-09T21:35:37.167Z,78.50
2017-09-09T21:37:38.151Z,78.20
2017-09-09T21:39:39.117Z,78.60
2017-09-09T21:41:40.102Z,78.70
2017-09-09T21:43:41.804Z,79.50
2017-09-09T21:45:42.764Z,78.80
2017-09-09T21:47:43.730Z,78.60
2017-09-09T21:49:44.682Z,78.30
2017-09-09T21:51:45.633Z,78.70
2017-09-09T21:53:46.647Z,78.60
2017-09-09T21:55:47.587Z,78.60
2017-09-09T21:57:48.537Z,78.80
2017-09-09T21:59:49.492Z,78.90
2017-09-09T22:01:50.453Z,78.60
2017-09-09T22:03:51.410Z,79.10
2017-09-09T22:05:52.357Z,79.20
2017-09-09T22:07:54.052Z,79.00
2017-09-09T22:09:55.016Z,78.90
2017-09-09T22:11:55.975Z,79.10
2017-09-09T22:13:56.937Z,79.60
2017-09-09T22:15:57.881Z,79.20
2017-09-09T22:17:58.833Z,79.00
2017-09-09T22:19:59.796Z,78.80
2017-09-09T22:22:00.757Z,77.70
2017-09-09T22:24:02.461Z,78.40
2017-09-09T22:26:03.439Z,78.20
2017-09-09T22:28:05.155Z,78.30
2017-09-09T22:30:06.148Z,77.90
2017-09-09T22:32:07.866Z,79.00
2017-09-09T22:34:08.839Z,79.00
2017-09-09T22:36:10.549Z,78.50
2017-09-09T22:38:11.507Z,78.50
2017-09-09T22:40:13.211Z,78.80
2017-09-09T22:42:14.190Z,78.80
2017-09-09T22:44:15.167Z,79.70
2017-09-09T22:46:16.177Z,80.10
2017-09-09T22:48:17.874Z,80.20
2017-09-09T22:50:18.833Z,80.20
2017-09-09T22:52:19.793Z,79.70
2017-09-09T22:54:21.709Z,80.20
2017-09-09T22:56:22.705Z,80.20
2017-09-09T22:58:24.583Z,80.20
2017-09-09T23:00:25.546Z,80.10
2017-09-09T23:02:26.525Z,79.70
2017-09-09T23:04:27.518Z,79.70
2017-09-09T23:06:28.461Z,79.40
2017-09-09T23:08:29.418Z,79.20
2017-09-09T23:10:30.380Z,79.60
2017-09-09T23:12:32.098Z,80.00
2017-09-09T23:14:33.060Z,79.90
2017-09-09T23:16:34.054Z,80.50
2017-09-09T23:18:35.022Z,81.00
2017-09-09T23:20:36.714Z,81.10
2017-09-09T23:22:37.679Z,80.30
2017-09-09T23:24:38.660Z,80.10
2017-09-09T23:26:40.376Z,80.00
2017-09-09T23:28:41.873Z,79.90
2017-09-09T23:30:42.839Z,80.20
2017-09-09T23:32:43.840Z,80.00
2017-09-09T23:34:45.530Z,79.00
2017-09-09T23:36:47.665Z,79.00
2017-09-09T23:38:48.622Z,79.30
2017-09-09T23:40:49.577Z,79.30
2017-09-09T23:42:50.563Z,80.60
2017-09-09T23:44:52.256Z,80.50
2017-09-09T23:46:53.209Z,80.50
2017-09-09T23:48:54.169Z,80.30
2017-09-09T23:50:55.873Z,79.60
2017-09-09T23:52:56.828Z,79.60
2017-09-09T23:54:57.794Z,79.80
2017-09-09T23:56:59.497Z,80.60
2017-09-09T23:59:00.444Z,81.40
